createdAt,value
2022-08-26T00:00:49.186Z,100518.59
2022-08-26T00:03:17.284Z,100542.75
2022-08-26T00:05:44.946Z,100530.88
2022-08-26T00:08:14.613Z,100550.53
2022-08-26T00:10:42.133Z,100563.19
2022-08-26T00:13:09.839Z,100569.72
2022-08-26T00:15:37.625Z,100562.78
2022-08-26T00:18:21.750Z,100573.03
2022-08-26T00:20:49.570Z,100570.19
2022-08-26T00:23:16.608Z,100567.00
2022-08-26T00:25:43.746Z,100570.63
2022-08-26T00:28:10.930Z,100569.78
2022-08-26T00:30:38.526Z,100574.44
2022-08-26T00:33:07.127Z,100564.28
2022-08-26T00:35:34.368Z,100581.81
2022-08-26T00:38:03.431Z,100570.97
2022-08-26T00:40:34.376Z,100589.78
2022-08-26T00:43:03.091Z,100583.25
2022-08-26T00:45:42.081Z,100588.78
2022-08-26T00:48:13.468Z,100572.91
2022-08-26T00:50:47.372Z,100582.97
2022-08-26T00:53:14.260Z,100594.56
2022-08-26T00:55:41.433Z,100588.31
2022-08-26T00:58:08.837Z,100597.63
2022-08-26T01:00:35.672Z,100581.50
2022-08-26T01:03:03.374Z,100589.53
2022-08-26T01:05:33.260Z,100588.41
2022-08-26T01:08:00.456Z,100566.38
2022-08-26T01:10:30.999Z,100597.53
2022-08-26T01:13:00.973Z,100590.16
2022-08-26T01:15:32.767Z,100582.53
2022-08-26T01:17:59.904Z,100578.72
2022-08-26T01:20:35.090Z,100589.97
2022-08-26T01:23:05.913Z,100606.75
2022-08-26T01:25:39.364Z,100613.75
2022-08-26T01:28:10.009Z,100624.44
2022-08-26T01:30:39.351Z,100616.94
2022-08-26T01:33:12.722Z,100623.78
2022-08-26T01:35:40.201Z,100629.03
2022-08-26T01:38:08.598Z,100622.13
2022-08-26T01:40:38.515Z,100623.84
2022-08-26T01:43:08.135Z,100636.66
2022-08-26T01:45:43.150Z,100639.16
2022-08-26T01:48:14.219Z,100630.66
2022-08-26T01:50:43.164Z,100638.66
2022-08-26T01:53:14.750Z,100618.91
2022-08-26T01:55:44.896Z,100617.63
2022-08-26T01:58:16.554Z,100612.84
2022-08-26T02:00:44.288Z,100656.78
2022-08-26T02:03:11.106Z,100635.72
2022-08-26T02:05:39.445Z,100653.72
2022-08-26T02:08:07.070Z,100640.28
2022-08-26T02:10:35.082Z,100657.25
2022-08-26T02:13:02.832Z,100653.06
2022-08-26T02:15:29.917Z,100659.09
2022-08-26T02:17:56.971Z,100661.09
2022-08-26T02:20:25.199Z,100657.78
2022-08-26T02:22:53.318Z,100659.97
2022-08-26T02:25:24.877Z,100646.03
2022-08-26T02:27:53.162Z,100656.84
2022-08-26T02:30:23.888Z,100656.84
2022-08-26T02:32:52.912Z,100648.81
2022-08-26T02:35:22.019Z,100662.00
2022-08-26T02:37:49.476Z,100662.84
2022-08-26T02:40:18.111Z,100644.03
2022-08-26T02:42:45.074Z,100639.75
2022-08-26T02:45:13.097Z,100646.50
2022-08-26T02:47:43.426Z,100655.72
2022-08-26T02:50:10.041Z,100655.88
2022-08-26T02:52:37.179Z,100660.75
2022-08-26T02:55:05.510Z,100660.41
2022-08-26T02:57:32.181Z,100652.31
2022-08-26T02:59:59.465Z,100662.66
2022-08-26T03:02:28.322Z,100655.84
2022-08-26T03:04:58.104Z,100654.19
2022-08-26T03:07:28.918Z,100654.34
2022-08-26T03:09:56.277Z,100659.53
2022-08-26T03:12:23.184Z,100657.03
2022-08-26T03:14:49.770Z,100654.19
2022-08-26T03:17:16.570Z,100649.69
2022-08-26T03:19:44.469Z,100651.81
2022-08-26T03:22:11.750Z,100661.97
2022-08-26T03:24:41.217Z,100634.50
2022-08-26T03:27:11.052Z,100654.75
2022-08-26T03:29:38.818Z,100648.41
2022-08-26T03:32:05.822Z,100651.91
2022-08-26T03:34:32.361Z,100649.00
2022-08-26T03:37:00.441Z,100664.97
2022-08-26T03:39:27.447Z,100647.81
2022-08-26T03:41:58.696Z,100665.44
2022-08-26T03:44:25.334Z,100663.41
2022-08-26T03:46:52.229Z,100660.06
2022-08-26T03:49:18.827Z,100655.66
2022-08-26T03:51:45.446Z,100663.13
2022-08-26T03:54:13.525Z,100653.75
2022-08-26T03:56:40.242Z,100651.75
2022-08-26T03:59:07.540Z,100653.84
2022-08-26T04:01:34.700Z,100655.19
2022-08-26T04:04:01.281Z,100653.78
2022-08-26T04:06:30.442Z,100647.06
2022-08-26T04:08:59.137Z,100645.44
2022-08-26T04:11:28.670Z,100656.19
2022-08-26T04:14:03.108Z,100659.81
2022-08-26T04:16:29.911Z,100661.31
2022-08-26T04:18:57.543Z,100635.13
2022-08-26T04:21:26.140Z,100662.69
2022-08-26T04:23:53.580Z,100668.13
2022-08-26T04:26:21.369Z,100656.53
2022-08-26T04:28:51.020Z,100624.00
2022-08-26T04:31:18.888Z,100645.00
2022-08-26T04:33:47.461Z,100647.41
2022-08-26T04:36:16.483Z,100651.56
2022-08-26T04:38:43.201Z,100648.16
2022-08-26T04:41:15.560Z,100653.44
2022-08-26T04:43:43.816Z,100652.69
2022-08-26T04:46:12.980Z,100659.75
2022-08-26T04:48:40.567Z,100651.22
2022-08-26T04:51:07.127Z,100659.09
2022-08-26T04:53:34.635Z,100665.63
2022-08-26T04:56:01.388Z,100653.91
2022-08-26T04:58:30.750Z,100668.94
2022-08-26T05:00:57.376Z,100668.00
2022-08-26T05:03:26.281Z,100672.84
2022-08-26T05:05:53.668Z,100676.06
2022-08-26T05:08:21.576Z,100673.09
2022-08-26T05:10:50.685Z,100667.47
2022-08-26T05:13:20.608Z,100674.28
2022-08-26T05:15:48.243Z,100666.28
2022-08-26T05:18:16.981Z,100677.78
2022-08-26T05:20:50.652Z,100679.28
2022-08-26T05:23:18.073Z,100679.16
2022-08-26T05:25:47.000Z,100679.66
2022-08-26T05:28:15.947Z,100672.69
2022-08-26T05:30:43.028Z,100665.84
2022-08-26T05:33:11.628Z,100676.28
2022-08-26T05:35:39.102Z,100675.50
2022-08-26T05:38:12.686Z,100674.50
2022-08-26T05:40:41.586Z,100674.97
2022-08-26T05:43:08.997Z,100683.47
2022-08-26T05:45:36.149Z,100679.34
2022-08-26T05:48:03.121Z,100675.88
2022-08-26T05:50:36.541Z,100676.34
2022-08-26T05:53:06.944Z,100679.03
2022-08-26T05:55:33.710Z,100689.00
2022-08-26T05:58:01.030Z,100686.31
2022-08-26T06:00:29.347Z,100693.97
2022-08-26T06:02:55.966Z,100684.97
2022-08-26T06:05:22.536Z,100694.25
2022-08-26T06:07:49.384Z,100694.47
2022-08-26T06:10:33.818Z,100696.59
2022-08-26T06:13:04.605Z,100690.16
2022-08-26T06:15:41.940Z,100697.00
2022-08-26T06:18:09.054Z,100701.78
2022-08-26T06:20:35.822Z,100700.13
2022-08-26T06:23:03.857Z,100698.47
2022-08-26T06:25:32.430Z,100701.81
2022-08-26T06:27:59.044Z,100702.84
2022-08-26T06:30:26.502Z,100697.69
2022-08-26T06:32:53.385Z,100702.47
2022-08-26T06:35:20.009Z,100691.47
2022-08-26T06:37:47.706Z,100700.81
2022-08-26T06:40:14.351Z,100710.94
2022-08-26T06:42:42.338Z,100713.47
2022-08-26T06:45:10.687Z,100699.97
2022-08-26T06:47:41.491Z,100707.84
2022-08-26T06:50:08.755Z,100708.50
2022-08-26T06:52:35.317Z,100707.06
2022-08-26T06:55:02.031Z,100710.16
2022-08-26T06:57:28.732Z,100698.75
2022-08-26T06:59:59.564Z,100710.56
2022-08-26T07:02:28.441Z,100719.47
2022-08-26T07:04:56.825Z,100714.72
2022-08-26T07:07:23.487Z,100715.31
2022-08-26T07:09:52.486Z,100693.19
2022-08-26T07:12:19.444Z,100707.88
2022-08-26T07:14:47.326Z,100709.53
2022-08-26T07:17:16.510Z,100719.47
2022-08-26T07:19:43.246Z,100709.91
2022-08-26T07:22:09.876Z,100712.22
2022-08-26T07:24:39.426Z,100693.59
2022-08-26T07:27:08.921Z,100705.16
2022-08-26T07:29:36.993Z,100718.41
2022-08-26T07:32:04.122Z,100703.94
2022-08-26T07:34:33.316Z,100724.41
2022-08-26T07:37:00.441Z,100729.78
2022-08-26T07:39:28.067Z,100730.00
2022-08-26T07:41:54.996Z,100740.97
2022-08-26T07:44:22.193Z,100729.38
2022-08-26T07:46:53.191Z,100739.31
2022-08-26T07:49:20.929Z,100733.06
2022-08-26T07:51:49.239Z,100739.50
2022-08-26T07:54:15.865Z,100739.09
2022-08-26T07:56:44.285Z,100741.78
2022-08-26T07:59:14.073Z,100738.47
2022-08-26T08:01:44.706Z,100656.38
2022-08-26T08:04:12.521Z,100735.16
2022-08-26T08:06:41.482Z,100723.78
2022-08-26T08:09:13.311Z,100741.56
2022-08-26T08:11:40.202Z,100743.84
2022-08-26T08:14:08.430Z,100745.06
2022-08-26T08:16:37.246Z,100735.56
2022-08-26T08:19:05.742Z,100747.13
2022-08-26T08:21:32.571Z,100741.75
2022-08-26T08:23:59.270Z,100742.78
2022-08-26T08:26:27.440Z,100746.94
2022-08-26T08:28:55.474Z,100737.41
2022-08-26T08:31:52.134Z,100753.53
2022-08-26T08:34:11.096Z,100736.34
2022-08-26T08:36:37.727Z,100752.28
2022-08-26T08:39:05.067Z,100744.84
2022-08-26T08:41:48.200Z,100753.28
2022-08-26T08:44:18.380Z,100751.59
2022-08-26T08:46:47.642Z,100751.16
2022-08-26T08:49:15.255Z,100748.88
2022-08-26T08:51:48.005Z,100740.78
2022-08-26T08:54:14.982Z,100755.28
2022-08-26T08:56:50.083Z,100756.91
2022-08-26T08:59:19.995Z,100755.03
2022-08-26T09:01:59.695Z,100738.44
2022-08-26T09:04:58.222Z,100748.59
2022-08-26T09:07:28.120Z,100747.31
2022-08-26T09:09:58.018Z,100736.50
2022-08-26T09:12:29.390Z,100752.44
2022-08-26T09:15:02.144Z,100746.16
2022-08-26T09:17:43.907Z,100751.91
2022-08-26T09:20:17.579Z,100744.16
2022-08-26T09:22:44.434Z,100755.56
2022-08-26T09:25:13.477Z,100755.22
2022-08-26T09:27:44.015Z,100754.56
2022-08-26T09:30:13.533Z,100755.50
2022-08-26T09:32:40.858Z,100756.91
2022-08-26T09:35:23.437Z,100752.72
2022-08-26T09:40:22.092Z,100747.16
2022-08-26T09:43:06.760Z,100744.47
2022-08-26T09:45:33.656Z,100741.31
2022-08-26T09:48:02.321Z,100751.78
2022-08-26T09:50:33.949Z,100747.28
2022-08-26T09:53:14.628Z,100753.34
2022-08-26T09:55:43.189Z,100754.81
2022-08-26T09:58:15.420Z,100762.66
2022-08-26T10:00:43.493Z,100722.72
2022-08-26T10:03:21.553Z,100748.69
2022-08-26T10:05:57.284Z,100744.63
2022-08-26T10:08:27.681Z,100751.44
2022-08-26T10:10:55.749Z,100747.31
2022-08-26T10:13:29.537Z,100748.78
2022-08-26T10:16:03.826Z,100745.72
2022-08-26T10:18:35.403Z,100743.56
2022-08-26T10:21:07.368Z,100749.47
2022-08-26T10:26:12.348Z,100734.44
2022-08-26T10:28:45.849Z,100741.84
2022-08-26T10:31:28.627Z,100726.97
2022-08-26T10:33:58.891Z,100742.72
2022-08-26T10:36:30.552Z,100738.97
2022-08-26T10:38:59.871Z,100723.44
2022-08-26T10:41:31.424Z,100746.69
2022-08-26T10:44:01.344Z,100738.94
2022-08-26T10:46:36.929Z,100731.56
2022-08-26T10:49:06.835Z,100734.78
2022-08-26T10:51:36.120Z,100721.81
2022-08-26T10:54:09.416Z,100735.31
2022-08-26T10:56:45.865Z,100739.97
2022-08-26T10:59:24.230Z,100739.25
2022-08-26T11:01:57.571Z,100735.94
2022-08-26T11:04:51.069Z,100740.25
2022-08-26T11:07:37.832Z,100735.97
2022-08-26T11:10:08.711Z,100694.28
2022-08-26T11:12:50.655Z,100735.25
2022-08-26T11:15:50.467Z,100739.34
2022-08-26T11:18:45.654Z,100742.63
2022-08-26T11:22:04.811Z,100745.09
2022-08-26T11:25:00.329Z,100747.94
2022-08-26T11:28:03.486Z,100734.94
2022-08-26T11:30:42.733Z,100720.25
2022-08-26T11:33:10.500Z,100741.00
2022-08-26T11:35:50.840Z,100732.63
2022-08-26T11:38:27.337Z,100740.66
2022-08-26T11:41:08.915Z,100727.69
2022-08-26T11:43:37.753Z,100727.41
2022-08-26T11:46:07.316Z,100734.53
2022-08-26T11:48:37.015Z,100730.78
2022-08-26T11:51:07.764Z,100728.66
2022-08-26T11:53:37.193Z,100730.53
2022-08-26T11:56:07.874Z,100725.44
2022-08-26T11:58:35.776Z,100728.09
2022-08-26T12:01:05.963Z,100734.28
2022-08-26T12:03:41.159Z,100720.41
2022-08-26T12:06:16.259Z,100718.91
2022-08-26T12:08:44.646Z,100719.63
2022-08-26T12:11:20.021Z,100708.91
2022-08-26T12:13:54.659Z,100711.25
2022-08-26T12:16:24.273Z,100706.59
2022-08-26T12:18:51.889Z,100719.47
2022-08-26T12:21:24.410Z,100711.09
2022-08-26T12:23:53.805Z,100717.94
2022-08-26T12:26:25.417Z,100714.84
2022-08-26T12:28:55.578Z,100697.06
2022-08-26T12:31:28.953Z,100714.56
2022-08-26T12:33:56.996Z,100701.97
2022-08-26T12:36:30.672Z,100717.69
2022-08-26T12:39:05.248Z,100707.72
2022-08-26T12:41:40.802Z,100689.31
2022-08-26T12:44:07.960Z,100708.72
2022-08-26T12:46:34.706Z,100723.41
2022-08-26T12:49:01.425Z,100708.84
2022-08-26T12:51:31.880Z,100708.56
2022-08-26T12:53:59.150Z,100711.66
2022-08-26T12:56:33.862Z,100714.28
2022-08-26T12:59:19.039Z,100708.88
2022-08-26T13:01:45.815Z,100712.88
2022-08-26T13:04:40.925Z,100705.50
2022-08-26T13:07:20.303Z,100706.78
2022-08-26T13:09:47.007Z,100706.69
2022-08-26T13:12:24.149Z,100703.88
2022-08-26T13:14:50.776Z,100700.78
2022-08-26T13:17:17.309Z,100680.25
2022-08-26T13:19:44.102Z,100694.75
2022-08-26T13:22:12.828Z,100692.41
2022-08-26T13:24:43.141Z,100699.31
2022-08-26T13:27:13.828Z,100694.63
2022-08-26T13:29:41.046Z,100678.97
2022-08-26T13:32:08.527Z,100689.09
2022-08-26T13:34:37.283Z,100684.13
2022-08-26T13:37:04.906Z,100680.97
2022-08-26T13:39:31.579Z,100674.00
2022-08-26T13:41:59.482Z,100676.13
2022-08-26T13:44:26.049Z,100674.09
2022-08-26T13:46:52.601Z,100660.16
2022-08-26T13:49:19.172Z,100669.94
2022-08-26T13:51:45.724Z,100683.34
2022-08-26T13:54:12.301Z,100681.09
2022-08-26T13:56:38.961Z,100686.91
2022-08-26T13:59:06.934Z,100685.56
2022-08-26T14:01:35.453Z,100685.03
2022-08-26T14:04:02.370Z,100665.13
2022-08-26T14:06:28.998Z,100671.38
2022-08-26T14:08:55.550Z,100669.25
2022-08-26T14:11:23.157Z,100658.78
2022-08-26T14:13:49.773Z,100682.28
2022-08-26T14:16:22.764Z,100682.41
2022-08-26T14:18:50.889Z,100690.38
2022-08-26T14:21:18.364Z,100680.25
2022-08-26T14:23:45.090Z,100686.63
2022-08-26T14:26:12.029Z,100662.00
2022-08-26T14:28:54.474Z,100673.41
2022-08-26T14:31:22.448Z,100678.59
2022-08-26T14:33:49.185Z,100674.63
2022-08-26T14:36:15.715Z,100673.56
2022-08-26T14:38:42.396Z,100673.69
2022-08-26T14:41:09.500Z,100678.88
2022-08-26T14:43:36.241Z,100679.81
2022-08-26T14:46:03.979Z,100680.75
2022-08-26T14:48:32.049Z,100673.81
2022-08-26T14:50:58.643Z,100663.09
2022-08-26T14:53:25.285Z,100669.91
2022-08-26T14:55:52.416Z,100675.06
2022-08-26T14:58:19.097Z,100667.22
2022-08-26T15:00:45.824Z,100676.50
2022-08-26T15:03:12.582Z,100676.00
2022-08-26T15:05:42.198Z,100664.63
2022-08-26T15:08:09.788Z,100674.84
2022-08-26T15:10:36.493Z,100671.69
2022-08-26T15:13:03.125Z,100684.13
2022-08-26T15:15:29.745Z,100671.53
2022-08-26T15:17:56.409Z,100668.28
2022-08-26T15:20:23.115Z,100667.66
2022-08-26T15:22:51.141Z,100665.56
2022-08-26T15:25:17.730Z,100662.03
2022-08-26T15:27:44.598Z,100653.06
2022-08-26T15:30:13.006Z,100657.88
2022-08-26T15:32:39.654Z,100651.50
2022-08-26T15:35:09.269Z,100652.22
2022-08-26T15:37:36.275Z,100652.06
2022-08-26T15:40:05.268Z,100644.53
2022-08-26T15:42:32.058Z,100639.47
2022-08-26T15:44:58.616Z,100653.91
2022-08-26T15:47:25.245Z,100646.97
2022-08-26T15:49:51.769Z,100651.91
2022-08-26T15:52:18.418Z,100661.53
2022-08-26T15:54:44.977Z,100660.78
2022-08-26T15:57:15.365Z,100655.38
2022-08-26T15:59:43.158Z,100657.75
2022-08-26T16:02:09.807Z,100657.75
2022-08-26T16:04:36.885Z,100656.03
2022-08-26T16:07:03.845Z,100656.38
2022-08-26T16:09:30.513Z,100654.31
2022-08-26T16:11:57.467Z,100651.91
2022-08-26T16:14:26.921Z,100638.84
2022-08-26T16:16:53.469Z,100650.47
2022-08-26T16:19:20.350Z,100651.88
2022-08-26T16:21:46.988Z,100653.50
2022-08-26T16:24:14.474Z,100642.97
2022-08-26T16:26:43.026Z,100636.03
2022-08-26T16:29:11.745Z,100647.94
2022-08-26T16:31:39.836Z,100654.97
2022-08-26T16:34:07.454Z,100648.34
2022-08-26T16:36:34.371Z,100656.59
2022-08-26T16:39:01.210Z,100655.22
2022-08-26T16:41:29.509Z,100657.00
2022-08-26T16:43:56.679Z,100663.59
2022-08-26T16:46:24.516Z,100671.25
2022-08-26T16:48:53.002Z,100665.25
2022-08-26T16:51:21.715Z,100654.97
2022-08-26T16:53:50.306Z,100668.41
2022-08-26T16:56:20.473Z,100678.22
2022-08-26T16:58:47.436Z,100671.88
2022-08-26T17:01:14.454Z,100684.09
2022-08-26T17:03:41.202Z,100683.94
2022-08-26T17:06:09.906Z,100683.53
2022-08-26T17:08:37.441Z,100688.66
2022-08-26T17:11:04.333Z,100694.06
2022-08-26T17:13:35.741Z,100694.13
2022-08-26T17:16:04.267Z,100678.28
2022-08-26T17:18:31.766Z,100688.66
2022-08-26T17:21:00.876Z,100698.00
2022-08-26T17:23:28.874Z,100695.38
2022-08-26T17:25:55.457Z,100678.09
2022-08-26T17:28:22.037Z,100706.03
2022-08-26T17:30:48.694Z,100705.59
2022-08-26T17:33:18.646Z,100705.88
2022-08-26T17:35:48.813Z,100697.16
2022-08-26T17:38:15.410Z,100700.31
2022-08-26T17:40:43.400Z,100694.31
2022-08-26T17:43:12.339Z,100695.34
2022-08-26T17:45:39.922Z,100697.88
2022-08-26T17:48:06.854Z,100695.44
2022-08-26T17:50:33.550Z,100695.69
2022-08-26T17:53:00.156Z,100698.63
2022-08-26T17:55:26.917Z,100694.53
2022-08-26T17:57:55.572Z,100692.78
2022-08-26T18:00:27.013Z,100696.88
2022-08-26T18:02:54.266Z,100693.56
2022-08-26T18:05:21.872Z,100700.44
2022-08-26T18:07:48.554Z,100691.16
2022-08-26T18:10:20.868Z,100700.28
2022-08-26T18:12:48.201Z,100700.28
2022-08-26T18:15:17.306Z,100697.78
2022-08-26T18:17:44.913Z,100702.56
2022-08-26T18:20:14.273Z,100698.28
2022-08-26T18:22:41.044Z,100709.66
2022-08-26T18:25:08.648Z,100702.03
2022-08-26T18:27:36.185Z,100699.75
2022-08-26T18:30:04.457Z,100692.56
2022-08-26T18:32:32.577Z,100707.72
2022-08-26T18:34:59.323Z,100709.78
2022-08-26T18:37:29.472Z,100711.06
2022-08-26T18:39:58.125Z,100704.00
2022-08-26T18:42:24.809Z,100715.25
2022-08-26T18:44:51.652Z,100710.69
2022-08-26T18:47:18.208Z,100694.38
2022-08-26T18:49:46.257Z,100721.25
2022-08-26T18:52:13.008Z,100728.13
2022-08-26T18:54:39.731Z,100740.78
2022-08-26T18:57:06.374Z,100721.38
2022-08-26T18:59:33.792Z,100731.94
2022-08-26T19:02:00.508Z,100735.91
2022-08-26T19:04:27.350Z,100722.44
2022-08-26T19:06:55.342Z,100723.72
2022-08-26T19:09:22.008Z,100740.69
2022-08-26T19:11:50.003Z,100736.94
2022-08-26T19:14:17.682Z,100726.84
2022-08-26T19:16:48.730Z,100739.00
2022-08-26T19:19:16.501Z,100741.50
2022-08-26T19:21:43.326Z,100738.19
2022-08-26T19:24:15.872Z,100742.16
2022-08-26T19:26:43.431Z,100736.81
2022-08-26T19:29:10.005Z,100731.44
2022-08-26T19:31:36.656Z,100715.69
2022-08-26T19:34:03.986Z,100728.75
2022-08-26T19:36:31.865Z,100727.47
2022-08-26T19:38:58.495Z,100726.84
2022-08-26T19:41:36.687Z,100704.94
2022-08-26T19:44:06.954Z,100729.13
2022-08-26T19:46:33.688Z,100729.34
2022-08-26T19:49:00.241Z,100734.53
2022-08-26T19:51:29.355Z,100735.97
2022-08-26T19:53:58.088Z,100732.03
2022-08-26T19:56:27.640Z,100735.97
2022-08-26T19:58:55.013Z,100723.53
2022-08-26T20:01:22.169Z,100725.66
2022-08-26T20:03:49.216Z,100732.47
2022-08-26T20:06:16.830Z,100730.84
2022-08-26T20:08:44.190Z,100744.06
2022-08-26T20:11:13.606Z,100737.00
2022-08-26T20:13:42.577Z,100733.28
2022-08-26T20:16:09.295Z,100742.81
2022-08-26T20:18:35.919Z,100727.09
2022-08-26T20:21:02.549Z,100733.72
2022-08-26T20:23:29.118Z,100742.44
2022-08-26T20:25:55.658Z,100723.81
2022-08-26T20:28:22.229Z,100744.28
2022-08-26T20:30:50.209Z,100748.84
2022-08-26T20:33:16.758Z,100751.53
2022-08-26T20:35:43.299Z,100749.88
2022-08-26T20:38:09.964Z,100737.66
2022-08-26T20:40:36.562Z,100745.97
2022-08-26T20:43:03.156Z,100735.19
2022-08-26T20:45:29.795Z,100751.09
2022-08-26T20:47:57.861Z,100735.19
2022-08-26T20:50:24.421Z,100759.41
2022-08-26T20:52:50.962Z,100753.81
2022-08-26T20:55:17.515Z,100773.06
2022-08-26T20:57:44.046Z,100767.69
2022-08-26T21:00:12.043Z,100775.13
2022-08-26T21:02:38.777Z,100754.03
2022-08-26T21:05:08.298Z,100773.69
2022-08-26T21:07:35.601Z,100772.84
2022-08-26T21:10:02.909Z,100768.69
2022-08-26T21:12:29.715Z,100766.63
2022-08-26T21:14:56.282Z,100774.28
2022-08-26T21:17:22.856Z,100774.91
2022-08-26T21:19:49.386Z,100772.41
2022-08-26T21:22:17.315Z,100772.41
2022-08-26T21:24:43.860Z,100776.75
2022-08-26T21:27:10.789Z,100746.69
2022-08-26T21:29:37.366Z,100779.38
2022-08-26T21:32:04.462Z,100780.00
2022-08-26T21:34:31.043Z,100777.13
2022-08-26T21:36:57.756Z,100763.66
2022-08-26T21:39:26.005Z,100742.13
2022-08-26T21:41:52.543Z,100773.81
2022-08-26T21:44:19.105Z,100780.66
2022-08-26T21:46:46.285Z,100778.97
2022-08-26T21:49:14.825Z,100776.69
2022-08-26T21:51:44.180Z,100774.81
2022-08-26T21:54:12.102Z,100773.56
2022-08-26T21:56:42.681Z,100779.13
2022-08-26T21:59:09.413Z,100783.25
2022-08-26T22:01:36.491Z,100781.00
2022-08-26T22:04:05.686Z,100764.59
2022-08-26T22:06:34.658Z,100782.63
2022-08-26T22:09:01.402Z,100787.59
2022-08-26T22:11:28.365Z,100784.25
2022-08-26T22:13:56.376Z,100778.44
2022-08-26T22:16:23.153Z,100786.09
2022-08-26T22:18:50.049Z,100781.75
2022-08-26T22:21:19.265Z,100788.50
2022-08-26T22:23:46.480Z,100785.38
2022-08-26T22:26:15.640Z,100781.69
2022-08-26T22:28:52.430Z,100792.22
2022-08-26T22:31:37.078Z,100792.81
2022-08-26T22:34:06.339Z,100781.69
2022-08-26T22:36:32.860Z,100781.25
2022-08-26T22:39:00.701Z,100787.28
2022-08-26T22:41:27.461Z,100778.16
2022-08-26T22:43:54.035Z,100788.31
2022-08-26T22:46:25.597Z,100794.50
2022-08-26T22:48:54.269Z,100765.84
2022-08-26T22:51:21.889Z,100778.13
2022-08-26T22:53:48.982Z,100781.59
2022-08-26T22:56:15.909Z,100779.56
2022-08-26T22:58:42.613Z,100767.25
2022-08-26T23:01:09.383Z,100787.78
2022-08-26T23:03:36.141Z,100785.69
2022-08-26T23:06:06.321Z,100780.59
2022-08-26T23:08:32.919Z,100778.66
2022-08-26T23:10:59.511Z,100777.38
2022-08-26T23:13:26.103Z,100780.72
2022-08-26T23:16:00.617Z,100786.09
2022-08-26T23:18:27.367Z,100788.34
2022-08-26T23:20:54.339Z,100795.94
2022-08-26T23:23:22.363Z,100790.59
2022-08-26T23:25:48.959Z,100783.13
2022-08-26T23:28:16.221Z,100784.34
2022-08-26T23:30:42.836Z,100788.72
2022-08-26T23:33:09.462Z,100768.41
2022-08-26T23:35:35.997Z,100792.66
2022-08-26T23:38:04.828Z,100790.16
2022-08-26T23:40:34.680Z,100785.19
2022-08-26T23:43:04.244Z,100780.59
2022-08-26T23:45:31.309Z,100789.09
2022-08-26T23:47:58.713Z,100776.81
2022-08-26T23:50:27.654Z,100788.66
2022-08-26T23:52:54.205Z,100793.78
2022-08-26T23:55:20.835Z,100791.09
2022-08-26T23:57:49.173Z,100787.59
